Time;durP1;ratioP1;P1;durP2;ratioP2;P2;SDS_P1;SDS_P2;PMS_P1;PMS_P2;Temp;Humidity;BMP_temperature;BMP_pressure;BME280_temperature;BME280_humidity;BME280_pressure;Samples;Min_cycle;Max_cycle;Signal;HPM_P1;HPM_P2
2021/10/29 00:00:35;;;;;;;0.20;0.20;;;;;;;;;;6047544;23;20373;-92
2021/10/29 00:03:02;;;;;;;0.28;0.25;;;;;;;;;;6071234;23;20016;-91
2021/10/29 00:05:28;;;;;;;0.13;0.13;;;;;;;;;;6047733;23;20033;-91
2021/10/29 00:07:54;;;;;;;0.10;0.10;;;;;;;;;;6047750;23;20014;-91
2021/10/29 00:10:20;;;;;;;0.10;0.10;;;;;;;;;;6071452;23;20010;-92
2021/10/29 00:12:46;;;;;;;0.10;0.10;;;;;;;;;;6047660;23;20014;-92
2021/10/29 00:15:13;;;;;;;0.20;0.20;;;;;;;;;;6047731;23;20010;-91
2021/10/29 00:17:39;;;;;;;0.10;0.10;;;;;;;;;;6047526;23;20073;-91
2021/10/29 00:20:05;;;;;;;0.10;0.10;;;;;;;;;;6047660;23;20432;-92
2021/10/29 00:22:31;;;;;;;0.10;0.10;;;;;;;;;;6071518;23;20412;-92
2021/10/29 00:24:57;;;;;;;0.20;0.20;;;;;;;;;;6071821;23;20010;-92
2021/10/29 00:27:23;;;;;;;0.10;0.10;;;;;;;;;;6047355;23;20014;-92
2021/10/29 00:29:49;;;;;;;0.10;0.10;;;;;;;;;;6095170;23;20014;-91
2021/10/29 00:32:15;;;;;;;0.68;0.68;;;;;;;;;;6071222;23;20021;-92
2021/10/29 00:34:41;;;;;;;0.10;0.10;;;;;;;;;;6071753;23;20515;-92
2021/10/29 00:37:07;;;;;;;0.65;0.28;;;;;;;;;;6071329;23;20041;-93
2021/10/29 00:39:33;;;;;;;0.10;0.10;;;;;;;;;;6047843;23;20019;-92
2021/10/29 00:41:59;;;;;;;0.10;0.10;;;;;;;;;;6048182;23;20097;-93
2021/10/29 00:44:26;;;;;;;0.35;0.35;;;;;;;;;;6047359;23;20401;-93
2021/10/29 00:46:52;;;;;;;0.20;0.20;;;;;;;;;;6071432;23;20033;-93
2021/10/29 00:49:18;;;;;;;0.20;0.20;;;;;;;;;;6071316;23;20018;-93
2021/10/29 00:51:44;;;;;;;0.10;0.10;;;;;;;;;;6095003;23;20022;-93
2021/10/29 00:54:11;;;;;;;0.10;0.10;;;;;;;;;;6071064;23;20349;-93
2021/10/29 00:56:37;;;;;;;0.20;0.20;;;;;;;;;;6047346;23;20014;-93
2021/10/29 00:59:03;;;;;;;0.20;0.20;;;;;;;;;;6071173;23;20014;-92
2021/10/29 01:01:29;;;;;;;0.98;0.63;;;;;;;;;;6047757;23;20519;-93
2021/10/29 01:03:56;;;;;;;0.10;0.10;;;;;;;;;;6047230;23;20014;-92
2021/10/29 01:06:22;;;;;;;0.10;0.10;;;;;;;;;;6046900;23;20500;-93
2021/10/29 01:08:48;;;;;;;0.10;0.10;;;;;;;;;;6047296;23;20022;-92
2021/10/29 01:11:15;;;;;;;0.10;0.10;;;;;;;;;;6070907;23;20466;-93
2021/10/29 01:13:48;;;;;;;0.10;0.10;;;;;;;;;;6047362;23;20097;-94
2021/10/29 01:16:14;;;;;;;0.47;0.32;;;;;;;;;;6047170;23;20140;-92
2021/10/29 01:18:40;;;;;;;0.20;0.20;;;;;;;;;;6046666;23;20068;-92
2021/10/29 01:21:06;;;;;;;0.10;0.10;;;;;;;;;;6070854;23;20349;-92
2021/10/29 01:23:36;;;;;;;0.22;0.22;;;;;;;;;;6047643;23;20015;-93
2021/10/29 01:26:03;;;;;;;0.10;0.10;;;;;;;;;;6046781;23;20029;-93
2021/10/29 01:28:29;;;;;;;0.10;0.10;;;;;;;;;;6094888;23;20081;-93
2021/10/29 01:30:55;;;;;;;0.10;0.10;;;;;;;;;;6047119;23;20022;-92
2021/10/29 01:33:21;;;;;;;0.10;0.10;;;;;;;;;;6047327;23;20432;-92
2021/10/29 01:35:47;;;;;;;0.55;0.32;;;;;;;;;;6094656;23;20385;-92
2021/10/29 01:38:14;;;;;;;0.10;0.10;;;;;;;;;;6047076;23;20025;-92
2021/10/29 01:40:40;;;;;;;0.10;0.10;;;;;;;;;;6071351;23;20015;-92
2021/10/29 01:43:06;;;;;;;0.30;0.30;;;;;;;;;;6070889;23;20018;-92
2021/10/29 01:45:35;;;;;;;0.28;0.28;;;;;;;;;;6070954;23;20010;-92
2021/10/29 01:48:01;;;;;;;0.30;0.30;;;;;;;;;;6071067;23;20019;-92
2021/10/29 01:50:27;;;;;;;0.10;0.10;;;;;;;;;;6046973;23;20445;-92
2021/10/29 01:52:53;;;;;;;0.10;0.10;;;;;;;;;;6071497;23;20015;-91
2021/10/29 01:55:19;;;;;;;0.10;0.10;;;;;;;;;;6070552;23;20021;-92
2021/10/29 01:57:45;;;;;;;0.10;0.10;;;;;;;;;;6046941;23;20014;-92
2021/10/29 02:00:11;;;;;;;0.10;0.10;;;;;;;;;;6046650;23;20019;-91
2021/10/29 02:02:39;;;;;;;1.55;0.75;;;;;;;;;;6070728;23;20011;-91
2021/10/29 02:05:06;;;;;;;0.10;0.10;;;;;;;;;;6046998;23;20316;-92
2021/10/29 02:07:32;;;;;;;0.30;0.30;;;;;;;;;;6070926;23;20018;-93
2021/10/29 02:09:58;;;;;;;0.98;0.95;;;;;;;;;;6046798;23;20014;-92
2021/10/29 02:12:23;;;;;;;0.30;0.30;;;;;;;;;;6070704;23;20018;-91
2021/10/29 02:14:49;;;;;;;0.10;0.10;;;;;;;;;;6046806;23;20018;-91
2021/10/29 02:17:15;;;;;;;0.10;0.10;;;;;;;;;;6047013;23;20440;-91
2021/10/29 02:19:41;;;;;;;0.10;0.10;;;;;;;;;;6072319;23;20018;-91
2021/10/29 02:22:07;;;;;;;0.10;0.10;;;;;;;;;;6048980;23;20025;-92
2021/10/29 02:24:34;;;;;;;0.10;0.10;;;;;;;;;;6048603;23;20089;-92
2021/10/29 02:27:00;;;;;;;0.10;0.10;;;;;;;;;;6071986;23;20015;-91
2021/10/29 02:29:26;;;;;;;0.10;0.10;;;;;;;;;;6096191;23;20018;-91
2021/10/29 02:31:53;;;;;;;0.10;0.10;;;;;;;;;;6048666;23;20026;-91
2021/10/29 02:34:19;;;;;;;0.20;0.20;;;;;;;;;;6072516;23;20069;-91
2021/10/29 02:36:44;;;;;;;0.10;0.10;;;;;;;;;;6072281;23;20022;-92
2021/10/29 02:39:10;;;;;;;0.10;0.10;;;;;;;;;;6048353;23;20018;-90
2021/10/29 02:41:37;;;;;;;0.10;0.10;;;;;;;;;;6072648;23;20022;-91
2021/10/29 02:44:04;;;;;;;0.10;0.10;;;;;;;;;;6048441;23;20010;-91
2021/10/29 02:46:30;;;;;;;0.10;0.10;;;;;;;;;;6072550;23;20053;-91
2021/10/29 02:48:56;;;;;;;0.10;0.10;;;;;;;;;;6072707;23;20014;-92
2021/10/29 02:51:22;;;;;;;0.40;0.25;;;;;;;;;;6072026;23;20466;-92
2021/10/29 02:53:48;;;;;;;0.40;0.20;;;;;;;;;;6072318;23;20096;-92
2021/10/29 02:56:14;;;;;;;0.10;0.10;;;;;;;;;;6048186;23;20025;-91
2021/10/29 02:58:40;;;;;;;0.10;0.10;;;;;;;;;;6048585;23;20019;-91
2021/10/29 03:01:06;;;;;;;0.10;0.10;;;;;;;;;;6048556;23;20318;-92
2021/10/29 03:03:32;;;;;;;0.10;0.10;;;;;;;;;;6048037;23;20074;-91
2021/10/29 03:05:58;;;;;;;0.10;0.10;;;;;;;;;;6048484;23;20014;-92
2021/10/29 03:08:24;;;;;;;0.10;0.10;;;;;;;;;;6048186;23;20094;-91
2021/10/29 03:10:50;;;;;;;0.10;0.10;;;;;;;;;;6048171;23;20014;-91
2021/10/29 03:13:16;;;;;;;0.10;0.10;;;;;;;;;;6072352;23;20038;-91
2021/10/29 03:15:43;;;;;;;0.10;0.10;;;;;;;;;;6072067;23;20018;-92
2021/10/29 03:18:09;;;;;;;0.10;0.10;;;;;;;;;;6072094;23;20025;-91
2021/10/29 03:20:35;;;;;;;0.10;0.10;;;;;;;;;;6048482;23;20110;-91
2021/10/29 03:23:01;;;;;;;0.60;0.45;;;;;;;;;;6047945;23;20026;-91
2021/10/29 03:25:27;;;;;;;0.20;0.20;;;;;;;;;;6071617;23;20042;-91
2021/10/29 03:27:53;;;;;;;0.20;0.20;;;;;;;;;;6071311;23;20025;-91
2021/10/29 03:30:20;;;;;;;0.10;0.10;;;;;;;;;;6071451;23;20072;-92
2021/10/29 03:32:46;;;;;;;0.10;0.10;;;;;;;;;;6047941;23;20015;-91
2021/10/29 03:35:12;;;;;;;0.15;0.15;;;;;;;;;;6047621;23;20017;-91
2021/10/29 03:45:26;;;;;;;0.10;0.10;;;;;;;;;;6074038;23;20019;-93
2021/10/29 03:47:56;;;;;;;0.10;0.10;;;;;;;;;;6048092;23;20077;-93
2021/10/29 03:50:25;;;;;;;0.10;0.10;;;;;;;;;;6049275;23;20010;-91
2021/10/29 03:53:24;;;;;;;0.10;0.10;;;;;;;;;;6048926;23;20097;-93
2021/10/29 03:55:53;;;;;;;0.38;0.20;;;;;;;;;;6054249;23;20010;-93
2021/10/29 03:58:19;;;;;;;0.10;0.10;;;;;;;;;;6072364;23;20045;-92
2021/10/29 04:00:45;;;;;;;0.55;0.43;;;;;;;;;;6048077;23;20313;-92
2021/10/29 04:03:11;;;;;;;0.10;0.10;;;;;;;;;;6048152;23;20018;-92
2021/10/29 04:05:37;;;;;;;0.10;0.10;;;;;;;;;;6048031;23;20014;-92
2021/10/29 04:08:03;;;;;;;0.47;0.47;;;;;;;;;;6048048;23;20017;-92
2021/10/29 04:10:30;;;;;;;0.30;0.30;;;;;;;;;;6047881;23;20025;-92
2021/10/29 04:13:01;;;;;;;0.10;0.10;;;;;;;;;;6071784;23;20405;-92
2021/10/29 04:15:27;;;;;;;0.10;0.10;;;;;;;;;;6072282;23;20042;-93
2021/10/29 04:17:53;;;;;;;0.32;0.32;;;;;;;;;;6071639;23;20078;-92
2021/10/29 04:20:19;;;;;;;0.10;0.10;;;;;;;;;;6048029;23;20014;-93
2021/10/29 04:22:45;;;;;;;0.10;0.10;;;;;;;;;;6072308;23;20015;-93
2021/10/29 04:25:11;;;;;;;0.10;0.10;;;;;;;;;;6048406;23;20115;-92
2021/10/29 04:27:44;;;;;;;0.25;0.25;;;;;;;;;;6071425;23;20034;-93
2021/10/29 04:30:14;;;;;;;;;;;;;;;;;;6096151;23;20014;-92
2021/10/29 04:32:40;;;;;;;0.55;0.55;;;;;;;;;;6071753;23;20291;-92
2021/10/29 04:35:06;;;;;;;0.25;0.25;;;;;;;;;;6047937;23;20014;-92
2021/10/29 04:37:32;;;;;;;0.10;0.10;;;;;;;;;;6047656;23;20010;-93
2021/10/29 04:39:58;;;;;;;0.10;0.10;;;;;;;;;;6071109;23;20022;-92
2021/10/29 04:42:24;;;;;;;0.10;0.10;;;;;;;;;;6071382;23;20492;-92
2021/10/29 04:44:50;;;;;;;0.10;0.10;;;;;;;;;;6071991;23;20405;-92
2021/10/29 04:47:16;;;;;;;0.10;0.10;;;;;;;;;;6047597;23;20014;-93
2021/10/29 04:49:42;;;;;;;0.73;0.73;;;;;;;;;;6047650;23;20014;-92
2021/10/29 04:52:08;;;;;;;0.20;0.20;;;;;;;;;;6047388;23;20023;-93
2021/10/29 04:54:34;;;;;;;0.10;0.10;;;;;;;;;;6047440;23;20100;-92
2021/10/29 04:57:00;;;;;;;0.10;0.10;;;;;;;;;;6071107;23;20340;-92
2021/10/29 04:59:26;;;;;;;0.63;0.63;;;;;;;;;;6071302;23;20011;-91
2021/10/29 05:01:52;;;;;;;0.10;0.10;;;;;;;;;;6094771;23;20466;-91
2021/10/29 05:04:19;;;;;;;0.50;0.50;;;;;;;;;;6094506;23;20443;-91
2021/10/29 05:06:45;;;;;;;0.13;0.13;;;;;;;;;;6070981;23;20506;-90
2021/10/29 05:09:11;;;;;;;0.10;0.10;;;;;;;;;;6047227;23;20018;-91
2021/10/29 05:11:37;;;;;;;0.10;0.10;;;;;;;;;;6047148;23;20021;-91
2021/10/29 05:14:03;;;;;;;0.10;0.10;;;;;;;;;;6070820;23;20330;-91
2021/10/29 05:16:29;;;;;;;0.40;0.40;;;;;;;;;;6070662;23;20069;-91
2021/10/29 05:18:55;;;;;;;0.28;0.20;;;;;;;;;;6070897;23;20388;-91
2021/10/29 05:21:21;;;;;;;0.35;0.32;;;;;;;;;;6070719;23;20018;-91
2021/10/29 05:23:47;;;;;;;0.10;0.10;;;;;;;;;;6046887;23;20011;-91
2021/10/29 05:26:13;;;;;;;0.10;0.10;;;;;;;;;;6070866;23;20081;-90
2021/10/29 05:28:41;;;;;;;0.45;0.45;;;;;;;;;;6047904;23;20028;-92
2021/10/29 05:31:08;;;;;;;0.10;0.10;;;;;;;;;;6047057;23;20072;-92
2021/10/29 05:33:34;;;;;;;0.10;0.10;;;;;;;;;;6070980;23;20029;-91
2021/10/29 05:36:00;;;;;;;0.10;0.10;;;;;;;;;;6046998;23;20070;-91
2021/10/29 05:38:26;;;;;;;0.10;0.10;;;;;;;;;;6046374;23;20014;-91
2021/10/29 05:40:54;;;;;;;0.10;0.10;;;;;;;;;;6070343;23;20051;-90
2021/10/29 05:43:20;;;;;;;0.82;0.82;;;;;;;;;;6094750;23;20093;-91
2021/10/29 05:45:46;;;;;;;0.20;0.20;;;;;;;;;;6047149;23;20053;-91
2021/10/29 05:48:12;;;;;;;0.40;0.40;;;;;;;;;;6070534;23;20018;-91
2021/10/29 05:50:46;;;;;;;0.35;0.35;;;;;;;;;;6070650;23;20070;-92
2021/10/29 05:53:19;;;;;;;0.20;0.20;;;;;;;;;;6050402;23;20077;-92
2021/10/29 05:55:45;;;;;;;0.20;0.20;;;;;;;;;;6050033;23;20018;-92
2021/10/29 05:58:11;;;;;;;0.17;0.17;;;;;;;;;;6048620;23;20089;-92
2021/10/29 06:00:37;;;;;;;0.10;0.10;;;;;;;;;;6072957;23;20010;-92
2021/10/29 06:03:03;;;;;;;0.52;0.20;;;;;;;;;;6048988;23;20021;-92
2021/10/29 06:05:29;;;;;;;0.38;0.38;;;;;;;;;;6048662;23;20014;-92
2021/10/29 06:07:56;;;;;;;0.10;0.10;;;;;;;;;;6048264;23;20014;-90
2021/10/29 06:10:22;;;;;;;0.10;0.10;;;;;;;;;;6072017;23;20014;-90
2021/10/29 06:12:48;;;;;;;0.55;0.15;;;;;;;;;;6095648;23;20017;-89
2021/10/29 06:15:15;;;;;;;0.10;0.10;;;;;;;;;;6071453;23;20061;-90
2021/10/29 06:17:41;;;;;;;0.30;0.30;;;;;;;;;;6047830;23;20033;-87
2021/10/29 06:20:08;;;;;;;0.10;0.10;;;;;;;;;;6072335;23;20082;-90
2021/10/29 06:22:39;;;;;;;0.15;0.15;;;;;;;;;;6048988;23;20422;-89
2021/10/29 06:25:13;;;;;;;0.10;0.10;;;;;;;;;;6096365;23;20034;-91
2021/10/29 06:30:06;;;;;;;0.15;0.15;;;;;;;;;;6097292;23;20023;-92
2021/10/29 06:32:35;;;;;;;0.52;0.40;;;;;;;;;;6053516;23;20041;-96
2021/10/29 06:35:01;;;;;;;0.10;0.10;;;;;;;;;;6059620;23;20088;-95
2021/10/29 06:37:27;;;;;;;0.10;0.10;;;;;;;;;;6073853;23;20042;-94
2021/10/29 06:40:03;;;;;;;0.68;0.20;;;;;;;;;;6048303;23;20015;-95
2021/10/29 06:42:50;;;;;;;0.22;0.20;;;;;;;;;;6074668;23;20018;-92
2021/10/29 06:47:52;;;;;;;0.10;0.10;;;;;;;;;;6072506;23;20026;-94
2021/10/29 07:04:26;;;;;;;0.20;0.20;;;;;;;;;;6101575;23;20026;-92
2021/10/29 07:42:15;;;;;;;0.10;0.10;;;;;;;;;;6078586;23;20026;-93
2021/10/29 07:44:41;;;;;;;0.10;0.10;;;;;;;;;;6050600;23;20022;-94
2021/10/29 07:47:07;;;;;;;0.10;0.10;;;;;;;;;;6050517;23;20348;-93
2021/10/29 07:49:33;;;;;;;0.10;0.10;;;;;;;;;;6050663;23;20018;-93
2021/10/29 07:52:08;;;;;;;0.10;0.10;;;;;;;;;;6052955;23;20015;-94
2021/10/29 07:54:34;;;;;;;0.10;0.10;;;;;;;;;;6075130;23;20471;-95
2021/10/29 07:57:01;;;;;;;0.10;0.10;;;;;;;;;;6051106;23;20093;-94
2021/10/29 07:59:27;;;;;;;0.10;0.10;;;;;;;;;;6050141;23;20022;-93
2021/10/29 08:01:53;;;;;;;0.10;0.10;;;;;;;;;;6073907;23;20022;-93
2021/10/29 08:04:21;;;;;;;0.20;0.20;;;;;;;;;;6050876;23;20145;-95
2021/10/29 08:06:48;;;;;;;1.35;0.30;;;;;;;;;;6050829;23;20360;-92
2021/10/29 08:09:14;;;;;;;0.10;0.10;;;;;;;;;;6050162;23;20046;-92
2021/10/29 08:11:40;;;;;;;0.38;0.38;;;;;;;;;;6050598;23;20026;-94
2021/10/29 08:14:06;;;;;;;0.10;0.10;;;;;;;;;;6049212;23;20015;-91
2021/10/29 08:16:32;;;;;;;0.10;0.10;;;;;;;;;;6073131;23;20021;-92
2021/10/29 08:18:58;;;;;;;0.10;0.10;;;;;;;;;;6049750;23;20021;-93
2021/10/29 08:21:24;;;;;;;0.10;0.10;;;;;;;;;;6071190;23;20026;-93
2021/10/29 08:23:50;;;;;;;0.10;0.10;;;;;;;;;;6047324;23;20018;-90
2021/10/29 08:26:18;;;;;;;0.45;0.30;;;;;;;;;;6096814;23;20109;-95
2021/10/29 08:28:44;;;;;;;0.15;0.15;;;;;;;;;;6128500;23;20009;-88
2021/10/29 08:31:11;;;;;;;0.10;0.10;;;;;;;;;;6078429;23;20082;-89
2021/10/29 08:33:37;;;;;;;0.50;0.50;;;;;;;;;;6080032;23;20014;-90
2021/10/29 08:36:03;;;;;;;0.10;0.10;;;;;;;;;;6075643;23;20052;-90
2021/10/29 08:38:30;;;;;;;0.52;0.52;;;;;;;;;;6075256;23;20014;-89
2021/10/29 08:40:56;;;;;;;0.28;0.28;;;;;;;;;;6075441;23;20436;-89
2021/10/29 08:43:22;;;;;;;0.10;0.10;;;;;;;;;;6075790;23;20020;-91
2021/10/29 08:45:50;;;;;;;1.65;1.55;;;;;;;;;;6075566;23;20017;-92
2021/10/29 08:48:16;;;;;;;0.30;0.30;;;;;;;;;;6075439;23;20025;-92
2021/10/29 08:50:42;;;;;;;0.10;0.10;;;;;;;;;;6075361;23;20088;-91
2021/10/29 08:53:07;;;;;;;0.10;0.10;;;;;;;;;;6075785;23;20050;-89
2021/10/29 08:55:34;;;;;;;0.20;0.20;;;;;;;;;;6099310;23;20049;-91
2021/10/29 08:58:03;;;;;;;0.10;0.10;;;;;;;;;;6076291;23;20071;-93
2021/10/29 09:00:34;;;;;;;0.10;0.10;;;;;;;;;;6078825;23;20010;-94
2021/10/29 09:03:04;;;;;;;0.10;0.10;;;;;;;;;;6076290;23;20014;-93
2021/10/29 09:05:55;;;;;;;0.10;0.10;;;;;;;;;;6077463;23;20041;-93
2021/10/29 09:08:28;;;;;;;0.10;0.10;;;;;;;;;;6083534;23;20022;-94
2021/10/29 09:17:25;;;;;;;0.10;0.10;;;;;;;;;;6083572;23;20029;-94
2021/10/29 09:33:10;;;;;;;0.10;0.10;;;;;;;;;;6080123;23;20022;-93
2021/10/29 09:35:37;;;;;;;0.10;0.10;;;;;;;;;;6076507;23;20015;-92
2021/10/29 09:38:22;;;;;;;0.17;0.17;;;;;;;;;;6079461;23;20054;-96
2021/10/29 09:41:10;;;;;;;0.10;0.10;;;;;;;;;;6091869;23;20034;-93
2021/10/29 09:53:43;;;;;;;0.10;0.10;;;;;;;;;;6141550;23;20017;-94
2021/10/29 09:55:55;;;;;;;0.40;0.40;;;;;;;;;;6083642;23;20018;-90
2021/10/29 09:58:22;;;;;;;0.10;0.10;;;;;;;;;;6049571;23;20018;-89
2021/10/29 10:00:48;;;;;;;0.10;0.10;;;;;;;;;;6048358;23;20014;-89
2021/10/29 10:03:15;;;;;;;0.55;0.28;;;;;;;;;;6074116;23;20389;-94
2021/10/29 10:05:42;;;;;;;0.10;0.10;;;;;;;;;;6073019;23;20010;-92
2021/10/29 10:08:08;;;;;;;0.20;0.20;;;;;;;;;;6049516;23;20021;-94
2021/10/29 10:10:34;;;;;;;0.10;0.10;;;;;;;;;;6050952;23;20065;-89
2021/10/29 10:13:00;;;;;;;0.10;0.10;;;;;;;;;;6048660;23;20448;-91
2021/10/29 10:15:27;;;;;;;0.10;0.10;;;;;;;;;;6048527;23;20318;-88
2021/10/29 10:17:53;;;;;;;0.30;0.30;;;;;;;;;;6047878;23;20106;-90
2021/10/29 10:20:19;;;;;;;0.17;0.17;;;;;;;;;;6050426;23;20018;-90
2021/10/29 10:22:48;;;;;;;0.15;0.15;;;;;;;;;;6072210;23;20090;-89
2021/10/29 10:25:28;;;;;;;2.78;0.30;;;;;;;;;;6072413;23;20015;-90
2021/10/29 10:42:06;;;;;;;0.10;0.10;;;;;;;;;;6075516;23;20014;-90
2021/10/29 10:47:00;;;;;;;0.10;0.10;;;;;;;;;;6096064;23;20018;-90
2021/10/29 10:49:46;;;;;;;0.10;0.10;;;;;;;;;;6072034;23;20041;-91
2021/10/29 10:52:26;;;;;;;0.17;0.17;;;;;;;;;;6073359;23;20023;-91
2021/10/29 10:55:03;;;;;;;0.10;0.10;;;;;;;;;;6050530;23;20014;-90
2021/10/29 10:57:47;;;;;;;0.30;0.30;;;;;;;;;;6049947;23;20441;-91
2021/10/29 11:00:19;;;;;;;0.10;0.10;;;;;;;;;;6074687;23;20120;-90
2021/10/29 11:11:04;;;;;;;0.22;0.20;;;;;;;;;;6095868;23;20441;-90
2021/10/29 11:13:46;;;;;;;0.13;0.13;;;;;;;;;;6049350;23;20389;-90
2021/10/29 11:16:27;;;;;;;0.25;0.25;;;;;;;;;;6071838;23;20022;-91
2021/10/29 11:19:11;;;;;;;0.10;0.10;;;;;;;;;;6095481;23;20019;-91
2021/10/29 11:21:50;;;;;;;0.20;0.20;;;;;;;;;;6072166;23;20455;-90
2021/10/29 11:24:17;;;;;;;0.10;0.10;;;;;;;;;;6047627;23;20030;-90
2021/10/29 11:26:44;;;;;;;0.43;0.43;;;;;;;;;;6047543;23;20010;-90
2021/10/29 11:29:10;;;;;;;0.20;0.20;;;;;;;;;;6047613;23;20458;-90
2021/10/29 11:31:44;;;;;;;0.30;0.30;;;;;;;;;;6071282;23;20015;-89
2021/10/29 11:34:13;;;;;;;0.40;0.40;;;;;;;;;;6071703;23;20097;-91
2021/10/29 11:36:39;;;;;;;0.10;0.10;;;;;;;;;;6048148;23;20094;-89
2021/10/29 11:39:06;;;;;;;0.10;0.10;;;;;;;;;;6071303;23;20026;-93
2021/10/29 11:41:33;;;;;;;0.63;0.40;;;;;;;;;;6071333;23;20018;-90
2021/10/29 11:44:01;;;;;;;0.30;0.30;;;;;;;;;;6047290;23;20065;-90
2021/10/29 11:46:27;;;;;;;0.10;0.10;;;;;;;;;;6069867;23;20018;-91
2021/10/29 11:48:53;;;;;;;0.20;0.20;;;;;;;;;;6047477;23;20100;-91
2021/10/29 11:51:20;;;;;;;0.10;0.10;;;;;;;;;;6095123;23;20022;-90
2021/10/29 11:53:48;;;;;;;0.10;0.10;;;;;;;;;;6047791;23;20025;-90
2021/10/29 11:59:49;;;;;;;0.22;0.22;;;;;;;;;;6074652;23;20081;-91
2021/10/29 12:07:17;;;;;;;0.10;0.10;;;;;;;;;;6074919;23;20014;-89
2021/10/29 12:09:47;;;;;;;0.10;0.10;;;;;;;;;;6047927;23;20097;-89
2021/10/29 12:12:15;;;;;;;1.02;1.02;;;;;;;;;;6047105;23;20097;-90
2021/10/29 12:14:42;;;;;;;0.30;0.30;;;;;;;;;;6047322;23;20487;-89
2021/10/29 12:17:10;;;;;;;0.10;0.10;;;;;;;;;;5930242;23;20028;-91
2021/10/29 12:19:41;;;;;;;0.20;0.20;;;;;;;;;;5948533;24;20107;-92
2021/10/29 12:24:59;;;;;;;0.10;0.10;;;;;;;;;;5948105;24;20017;-90
2021/10/29 12:27:30;;;;;;;0.20;0.20;;;;;;;;;;5925431;24;20020;-90
2021/10/29 12:30:08;;;;;;;0.20;0.20;;;;;;;;;;5926162;24;20059;-91
2021/10/29 12:32:44;;;;;;;0.25;0.25;;;;;;;;;;5949199;24;20054;-90
2021/10/29 13:03:06;;;;;;;0.10;0.10;;;;;;;;;;5945625;24;20436;-92
2021/10/29 13:05:33;;;;;;;0.20;0.20;;;;;;;;;;5948415;24;20504;-92
2021/10/29 13:08:00;;;;;;;0.10;0.10;;;;;;;;;;5925506;24;20125;-92
2021/10/29 13:10:26;;;;;;;0.20;0.20;;;;;;;;;;5947857;24;20452;-90
2021/10/29 13:13:01;;;;;;;0.10;0.10;;;;;;;;;;5924746;24;20116;-89
2021/10/29 13:15:31;;;;;;;0.38;0.35;;;;;;;;;;5945883;24;20073;-89
2021/10/29 13:18:01;;;;;;;0.25;0.25;;;;;;;;;;5948146;24;20027;-91
2021/10/29 13:26:20;;;;;;;0.10;0.10;;;;;;;;;;5944134;24;20025;-90
2021/10/29 13:34:30;;;;;;;0.22;0.22;;;;;;;;;;5944677;24;20025;-91
2021/10/29 13:55:55;;;;;;;0.10;0.10;;;;;;;;;;5924735;24;20024;-89
2021/10/29 13:59:17;;;;;;;0.10;0.10;;;;;;;;;;5920022;24;20393;-89
2021/10/29 14:04:03;;;;;;;0.10;0.10;;;;;;;;;;5947088;24;20411;-89
2021/10/29 14:28:58;;;;;;;0.30;0.30;;;;;;;;;;5945573;24;20025;-89
2021/10/29 14:33:55;;;;;;;0.10;0.10;;;;;;;;;;5949235;24;20024;-89
2021/10/29 14:36:24;;;;;;;0.10;0.10;;;;;;;;;;5924718;24;20017;-87
2021/10/29 14:39:02;;;;;;;0.10;0.10;;;;;;;;;;5924992;24;20444;-88
2021/10/29 14:41:42;;;;;;;0.20;0.20;;;;;;;;;;5922958;24;20021;-88
2021/10/29 14:44:21;;;;;;;0.20;0.20;;;;;;;;;;5923184;24;20024;-87
2021/10/29 14:47:23;;;;;;;0.10;0.10;;;;;;;;;;5920255;24;20096;-88
2021/10/29 14:50:10;;;;;;;0.20;0.20;;;;;;;;;;5921441;24;20032;-86
2021/10/29 15:03:34;;;;;;;0.20;0.20;;;;;;;;;;5945131;24;20029;-88
2021/10/29 15:30:01;;;;;;;0.10;0.10;;;;;;;;;;5926263;24;20100;-90
2021/10/29 15:41:10;;;;;;;0.20;0.20;;;;;;;;;;5945699;24;20455;-91
2021/10/29 15:46:53;;;;;;;0.10;0.10;;;;;;;;;;5949198;24;20024;-89
2021/10/29 15:48:54;;;;;;;0.10;0.10;;;;;;;;;;5918471;24;20021;-89
2021/10/29 15:51:20;;;;;;;0.20;0.20;;;;;;;;;;5930224;24;20130;-90
2021/10/29 15:53:46;;;;;;;0.10;0.10;;;;;;;;;;5930204;24;20021;-91
2021/10/29 15:56:23;;;;;;;0.20;0.20;;;;;;;;;;5953300;24;20073;-90
2021/10/29 15:59:09;;;;;;;0.10;0.10;;;;;;;;;;5930652;24;20068;-90
2021/10/29 16:01:55;;;;;;;0.10;0.10;;;;;;;;;;5930315;24;20027;-89
2021/10/29 16:17:53;;;;;;;0.10;0.10;;;;;;;;;;5953380;24;20020;-90
2021/10/29 16:20:19;;;;;;;0.10;0.10;;;;;;;;;;5930126;24;20427;-90
2021/10/29 16:22:46;;;;;;;0.10;0.10;;;;;;;;;;5952931;24;20436;-89
2021/10/29 16:25:17;;;;;;;0.10;0.10;;;;;;;;;;5952584;24;20013;-90
2021/10/29 16:30:16;;;;;;;0.10;0.10;;;;;;;;;;5956838;24;20253;-89
2021/10/29 16:35:50;;;;;;;0.15;0.15;;;;;;;;;;5956247;24;20029;-88
2021/10/29 16:38:16;;;;;;;0.10;0.10;;;;;;;;;;5957441;24;20028;-89
2021/10/29 16:40:42;;;;;;;0.10;0.10;;;;;;;;;;5956038;24;20020;-89
2021/10/29 16:43:08;;;;;;;0.10;0.10;;;;;;;;;;5956488;24;20016;-89
2021/10/29 16:45:40;;;;;;;0.10;0.10;;;;;;;;;;5933120;24;20017;-89
2021/10/29 16:48:06;;;;;;;0.10;0.10;;;;;;;;;;5956273;24;20012;-89
2021/10/29 16:50:32;;;;;;;0.10;0.10;;;;;;;;;;5957699;24;20073;-89
2021/10/29 16:52:57;;;;;;;0.10;0.10;;;;;;;;;;5956419;24;20028;-88
2021/10/29 16:55:23;;;;;;;0.10;0.10;;;;;;;;;;5929687;24;20028;-90
2021/10/29 16:57:49;;;;;;;0.10;0.10;;;;;;;;;;5930413;24;20024;-89
2021/10/29 17:00:16;;;;;;;0.15;0.15;;;;;;;;;;5930396;24;20016;-91
2021/10/29 17:02:42;;;;;;;0.10;0.10;;;;;;;;;;5930138;24;20111;-93
2021/10/29 17:05:09;;;;;;;0.20;0.20;;;;;;;;;;5930204;24;20013;-90
2021/10/29 17:07:35;;;;;;;0.10;0.10;;;;;;;;;;5930465;24;20052;-92
2021/10/29 17:10:07;;;;;;;0.10;0.10;;;;;;;;;;5929934;24;20050;-89
2021/10/29 17:12:33;;;;;;;;;;;;;;;;;;5953047;24;20522;-89
2021/10/29 17:14:59;;;;;;;0.20;0.20;;;;;;;;;;5952432;24;19919;-89
2021/10/29 17:17:25;;;;;;;0.10;0.10;;;;;;;;;;5952736;24;20076;-90
2021/10/29 17:19:51;;;;;;;0.10;0.10;;;;;;;;;;5929512;24;20055;-90
2021/10/29 17:22:17;;;;;;;0.10;0.10;;;;;;;;;;5952728;24;20277;-90
2021/10/29 17:24:45;;;;;;;0.10;0.10;;;;;;;;;;5929290;24;20620;-89
2021/10/29 17:27:11;;;;;;;0.10;0.10;;;;;;;;;;5929283;24;20081;-89
2021/10/29 17:29:37;;;;;;;0.20;0.20;;;;;;;;;;5929759;24;20024;-89
2021/10/29 17:32:03;;;;;;;0.13;0.13;;;;;;;;;;5952293;24;20455;-89
2021/10/29 17:34:29;;;;;;;0.10;0.10;;;;;;;;;;5952523;24;20025;-91
2021/10/29 17:36:55;;;;;;;0.10;0.10;;;;;;;;;;5952227;24;20039;-88
2021/10/29 17:39:23;;;;;;;0.20;0.20;;;;;;;;;;5929801;24;20020;-89
2021/10/29 17:41:49;;;;;;;0.10;0.10;;;;;;;;;;5929104;24;20025;-89
2021/10/29 17:44:15;;;;;;;0.20;0.20;;;;;;;;;;5929611;24;20149;-90
2021/10/29 17:46:41;;;;;;;0.10;0.10;;;;;;;;;;5952265;24;20013;-90
2021/10/29 17:49:10;;;;;;;0.20;0.20;;;;;;;;;;5953602;24;20028;-89
2021/10/29 17:51:37;;;;;;;0.10;0.10;;;;;;;;;;5954201;24;20080;-89
2021/10/29 17:54:03;;;;;;;0.10;0.10;;;;;;;;;;5931034;24;20020;-89
2021/10/29 17:56:29;;;;;;;0.10;0.10;;;;;;;;;;5953906;24;20020;-88
2021/10/29 17:58:55;;;;;;;0.10;0.10;;;;;;;;;;5954078;24;20455;-88
2021/10/29 18:01:21;;;;;;;0.10;0.10;;;;;;;;;;5954151;24;20459;-93
2021/10/29 18:03:57;;;;;;;0.10;0.10;;;;;;;;;;5933127;24;20013;-93
2021/10/29 18:06:23;;;;;;;0.10;0.10;;;;;;;;;;5931441;24;20012;-91
2021/10/29 18:09:03;;;;;;;0.10;0.10;;;;;;;;;;5931570;24;20025;-89
2021/10/29 18:11:30;;;;;;;0.10;0.10;;;;;;;;;;5930824;24;20095;-89
2021/10/29 18:13:55;;;;;;;0.10;0.10;;;;;;;;;;5953668;24;20013;-90
2021/10/29 18:16:23;;;;;;;1.25;1.23;;;;;;;;;;5953627;24;20016;-89
2021/10/29 18:18:49;;;;;;;0.10;0.10;;;;;;;;;;5953435;24;20476;-89
2021/10/29 18:21:16;;;;;;;0.10;0.10;;;;;;;;;;5953525;24;20092;-89
2021/10/29 18:23:42;;;;;;;0.32;0.32;;;;;;;;;;5930319;24;20016;-90
2021/10/29 18:26:09;;;;;;;0.22;0.22;;;;;;;;;;5930624;24;20343;-90
2021/10/29 18:28:35;;;;;;;0.20;0.20;;;;;;;;;;5960527;24;20032;-90
2021/10/29 18:31:02;;;;;;;0.10;0.10;;;;;;;;;;5977924;24;20008;-90
2021/10/29 18:33:30;;;;;;;0.30;0.30;;;;;;;;;;5978302;24;20128;-90
2021/10/29 18:35:55;;;;;;;0.10;0.10;;;;;;;;;;5956024;24;20099;-89
2021/10/29 18:38:21;;;;;;;0.13;0.13;;;;;;;;;;5978774;24;20016;-89
2021/10/29 18:40:47;;;;;;;0.10;0.10;;;;;;;;;;5979013;23;20013;-90
2021/10/29 18:43:14;;;;;;;0.10;0.10;;;;;;;;;;5956123;24;20040;-90
2021/10/29 18:45:40;;;;;;;0.10;0.10;;;;;;;;;;5955995;24;20036;-89
2021/10/29 18:48:06;;;;;;;0.10;0.10;;;;;;;;;;5956210;24;20020;-90
2021/10/29 18:50:32;;;;;;;0.10;0.10;;;;;;;;;;5951157;24;20025;-90
2021/10/29 18:52:58;;;;;;;0.10;0.10;;;;;;;;;;5950318;24;20021;-90
2021/10/29 18:55:24;;;;;;;0.10;0.10;;;;;;;;;;5949508;24;20016;-87
2021/10/29 18:57:50;;;;;;;0.20;0.20;;;;;;;;;;5972304;24;20050;-91
2021/10/29 19:00:16;;;;;;;0.15;0.15;;;;;;;;;;5949542;24;20005;-91
2021/10/29 19:02:42;;;;;;;0.10;0.10;;;;;;;;;;5973840;24;20013;-88
2021/10/29 19:05:08;;;;;;;0.20;0.20;;;;;;;;;;5974016;24;20045;-88
2021/10/29 19:07:34;;;;;;;0.10;0.10;;;;;;;;;;5951089;24;20021;-89
2021/10/29 19:10:00;;;;;;;0.10;0.10;;;;;;;;;;5951194;24;20016;-89
2021/10/29 19:12:26;;;;;;;0.10;0.10;;;;;;;;;;5974444;24;20025;-88
2021/10/29 19:14:52;;;;;;;0.20;0.20;;;;;;;;;;5974187;24;20009;-89
2021/10/29 19:17:19;;;;;;;0.10;0.10;;;;;;;;;;5950488;24;20045;-87
2021/10/29 19:19:45;;;;;;;0.10;0.10;;;;;;;;;;5949730;24;20017;-88
2021/10/29 19:22:11;;;;;;;0.10;0.10;;;;;;;;;;5948835;24;20013;-88
2021/10/29 19:24:37;;;;;;;0.10;0.10;;;;;;;;;;5971836;24;20116;-88
2021/10/29 19:27:03;;;;;;;0.10;0.10;;;;;;;;;;5973046;24;20107;-90